Time;durP1;ratioP1;P1;durP2;ratioP2;P2;SDS_P1;SDS_P2;PMS_P1;PMS_P2;Temp;Humidity;BMP_temperature;BMP_pressure;BME280_temperature;BME280_humidity;BME280_pressure;Samples;Min_cycle;Max_cycle;Signal;HPM_P1;HPM_P2
2024/01/24 00:00:28;;;;;;;;;;;;;;;10.44;100.00;100802.28;4895273;29;19927;-71
2024/01/24 00:02:56;;;;;;;;;;;;;;;10.47;100.00;100793.00;4895265;29;19952;-71
2024/01/24 00:05:21;;;;;;;;;;;;;;;10.52;100.00;100782.44;4895399;29;20664;-71
2024/01/24 00:07:49;;;;;;;;;;;;;;;10.55;100.00;100779.38;4895806;29;19970;-71
2024/01/24 00:10:15;;;;;;;;;;;;;;;10.69;100.00;100761.44;4895863;29;20056;-71
2024/01/24 00:12:41;;;;;;;;;;;;;;;10.69;100.00;100761.44;4896561;29;19943;-72
2024/01/24 00:15:06;;;;;;;;;;;;;;;10.65;100.00;100710.88;4895666;29;19924;-71
2024/01/24 00:17:31;;;;;;;;;;;;;;;10.74;100.00;100753.59;4895296;29;19932;-71
2024/01/24 00:19:56;;;;;;;;;;;;;;;10.80;100.00;100741.19;4896579;29;19931;-71
2024/01/24 00:22:22;;;;;;;;;;;;;;;10.81;100.00;100747.38;4895837;29;19947;-71
2024/01/24 00:24:47;;;;;;;;;;;;;;;10.88;100.00;100762.53;4895478;29;19927;-71
2024/01/24 00:27:16;;;;;;;;;;;;;;;10.94;100.00;100763.63;4896454;29;19946;-71
2024/01/24 00:29:41;;;;;;;;;;;;;;;10.92;100.00;100760.28;4895524;29;19935;-71
2024/01/24 00:32:06;;;;;;;;;;;;;;;10.99;100.00;100761.13;4898457;29;19931;-71
2024/01/24 00:34:32;;;;;;;;;;;;;;;11.01;100.00;100756.38;4898473;29;19949;-71
2024/01/24 00:36:57;;;;;;;;;;;;;;;11.07;100.00;100757.41;4899714;29;20113;-71
2024/01/24 00:39:22;;;;;;;;;;;;;;;11.03;100.00;100772.34;4898947;29;19920;-71
2024/01/24 00:41:48;;;;;;;;;;;;;;;10.99;100.00;100750.34;4900271;29;19927;-71
2024/01/24 00:44:13;;;;;;;;;;;;;;;11.04;100.00;100747.88;4899004;29;19983;-71
2024/01/24 00:46:38;;;;;;;;;;;;;;;11.02;100.00;100741.88;4899333;29;19923;-70
2024/01/24 00:49:04;;;;;;;;;;;;;;;11.11;100.00;100747.91;4900499;29;19947;-72
2024/01/24 00:51:30;;;;;;;;;;;;;;;11.07;100.00;100747.50;4881756;29;19999;-72
2024/01/24 00:53:55;;;;;;;;;;;;;;;11.20;100.00;100751.25;4899133;29;19983;-72
2024/01/24 00:56:23;;;;;;;;;;;;;;;11.24;100.00;100739.03;4900158;29;19958;-72
2024/01/24 00:58:48;;;;;;;;;;;;;;;11.26;100.00;100734.28;4898425;29;20054;-72
2024/01/24 01:01:13;;;;;;;;;;;;;;;11.24;100.00;100733.66;4899280;29;20067;-72
2024/01/24 01:03:39;;;;;;;;;;;;;;;11.30;100.00;100722.03;4897859;29;20026;-72
2024/01/24 01:06:04;;;;;;;;;;;;;;;11.31;100.00;100742.56;4898108;29;19931;-72
2024/01/24 01:08:30;;;;;;;;;;;;;;;11.35;100.00;100718.75;4899354;29;19931;-72
2024/01/24 01:10:55;;;;;;;;;;;;;;;11.26;100.00;100728.88;4900023;29;19923;-72
2024/01/24 01:13:20;;;;;;;;;;;;;;;11.19;100.00;100731.56;4898268;29;19930;-72
2024/01/24 01:15:45;;;;;;;;;;;;;;;11.20;100.00;100740.47;4898607;29;20018;-72
2024/01/24 01:18:10;;;;;;;;;;;;;;;11.33;100.00;100735.09;4899477;29;20007;-72
2024/01/24 01:20:36;;;;;;;;;;;;;;;11.35;100.00;100738.41;4898585;29;19930;-72
2024/01/24 01:23:01;;;;;;;;;;;;;;;11.40;100.00;100721.63;4898866;29;19924;-72
2024/01/24 01:25:27;;;;;;;;;;;;;;;11.38;100.00;100726.41;4899320;29;19923;-72
2024/01/24 01:27:52;;;;;;;;;;;;;;;11.41;100.00;100741.34;4898391;29;20394;-72
2024/01/24 01:30:17;;;;;;;;;;;;;;;11.44;100.00;100738.25;4898887;29;20364;-72
2024/01/24 01:32:43;;;;;;;;;;;;;;;11.45;100.00;100748.81;4899609;29;19930;-72
2024/01/24 01:35:08;;;;;;;;;;;;;;;11.40;100.00;100745.06;4897444;29;19995;-72
2024/01/24 01:37:33;;;;;;;;;;;;;;;11.42;100.00;100743.00;4898792;29;19923;-72
2024/01/24 01:39:58;;;;;;;;;;;;;;;11.36;100.00;100706.91;4899284;29;19923;-72
2024/01/24 01:42:24;;;;;;;;;;;;;;;11.38;100.00;100738.00;4897227;29;19987;-72
2024/01/24 01:44:49;;;;;;;;;;;;;;;11.26;100.00;100738.81;4898778;29;19927;-72
2024/01/24 01:47:15;;;;;;;;;;;;;;;11.11;100.00;100730.94;4898847;29;19946;-72
2024/01/24 01:49:40;;;;;;;;;;;;;;;11.00;100.00;100740.44;4897205;29;19931;-72
2024/01/24 01:52:05;;;;;;;;;;;;;;;10.84;100.00;100730.81;4881533;29;19967;-71
2024/01/24 01:54:30;;;;;;;;;;;;;;;10.71;100.00;100737.84;4881377;29;19934;-71
2024/01/24 01:56:56;;;;;;;;;;;;;;;10.68;100.00;100734.72;4898132;29;19927;-71
2024/01/24 01:59:21;;;;;;;;;;;;;;;10.60;100.00;100733.00;4898207;29;19934;-73
2024/01/24 02:01:46;;;;;;;;;;;;;;;10.54;100.00;100720.34;4885411;29;19984;-72
2024/01/24 02:04:11;;;;;;;;;;;;;;;10.43;100.00;100719.88;4881376;29;19927;-71
2024/01/24 02:06:36;;;;;;;;;;;;;;;10.41;100.00;100727.31;4881211;29;19990;-73
2024/01/24 02:09:02;;;;;;;;;;;;;;;10.38;100.00;100719.66;4897697;29;19951;-71
2024/01/24 02:11:27;;;;;;;;;;;;;;;10.38;100.00;100711.59;4899225;29;19931;-72
2024/01/24 02:14:01;;;;;;;;;;;;;;;10.35;100.00;100706.56;4897587;29;19945;-70
2024/01/24 02:16:26;;;;;;;;;;;;;;;10.29;100.00;100705.50;4894638;29;19963;-71
2024/01/24 02:18:52;;;;;;;;;;;;;;;10.28;100.00;100690.41;4898408;29;20349;-72
2024/01/24 02:21:17;;;;;;;;;;;;;;;10.31;100.00;100687.31;4897659;29;20546;-72
2024/01/24 02:23:42;;;;;;;;;;;;;;;10.28;100.00;100703.00;4897961;29;19924;-72
2024/01/24 02:26:09;;;;;;;;;;;;;;;10.26;100.00;100703.22;4881394;29;20312;-73
2024/01/24 02:28:34;;;;;;;;;;;;;;;10.21;100.00;100710.22;4897401;29;20368;-71
2024/01/24 02:30:59;;;;;;;;;;;;;;;10.24;100.00;100693.66;4897077;29;19923;-71
2024/01/24 02:33:24;;;;;;;;;;;;;;;10.17;100.00;100693.63;4898350;29;19923;-72
2024/01/24 02:35:49;;;;;;;;;;;;;;;10.15;100.00;100691.16;4896947;29;19923;-74
2024/01/24 02:38:15;;;;;;;;;;;;;;;10.14;100.00;100710.19;4896445;29;19923;-72
2024/01/24 02:40:40;;;;;;;;;;;;;;;10.16;100.00;100702.72;4898957;29;19924;-72
2024/01/24 02:43:06;;;;;;;;;;;;;;;10.11;100.00;100703.31;4897150;29;19924;-72
2024/01/24 02:45:31;;;;;;;;;;;;;;;10.18;100.00;100699.84;4895531;29;19931;-72
2024/01/24 02:47:57;;;;;;;;;;;;;;;10.13;100.00;100698.59;4897028;29;19923;-72
2024/01/24 02:50:22;;;;;;;;;;;;;;;10.20;100.00;100703.19;4896852;29;19923;-72
2024/01/24 02:52:47;;;;;;;;;;;;;;;10.13;100.00;100695.88;4896897;29;19961;-72
2024/01/24 02:55:14;;;;;;;;;;;;;;;10.15;100.00;100696.53;4897599;29;19923;-72
2024/01/24 02:57:39;;;;;;;;;;;;;;;10.11;100.00;100711.41;4896813;29;19983;-72
2024/01/24 03:00:07;;;;;;;;;;;;;;;10.09;100.00;100716.13;4896219;29;19927;-72
2024/01/24 03:02:32;;;;;;;;;;;;;;;10.10;100.00;100698.97;4897830;29;19923;-73
2024/01/24 03:04:57;;;;;;;;;;;;;;;10.13;100.00;100685.13;4897231;29;19934;-72
2024/01/24 03:07:23;;;;;;;;;;;;;;;10.14;100.00;100699.44;4896016;29;19923;-72
2024/01/24 03:09:48;;;;;;;;;;;;;;;10.14;100.00;100685.97;4897952;29;19930;-72
2024/01/24 03:12:13;;;;;;;;;;;;;;;10.07;100.00;100693.97;4896669;29;20053;-73
2024/01/24 03:14:38;;;;;;;;;;;;;;;10.04;100.00;100704.31;4896137;29;20038;-72
2024/01/24 03:17:03;;;;;;;;;;;;;;;10.04;100.00;100699.78;4898243;29;19979;-76
2024/01/24 03:19:29;;;;;;;;;;;;;;;10.09;100.00;100718.81;4897775;29;19923;-76
2024/01/24 03:21:54;;;;;;;;;;;;;;;10.12;100.00;100723.81;4918784;29;19923;-77
2024/01/24 03:24:19;;;;;;;;;;;;;;;10.06;100.00;100707.63;4902336;29;19923;-76
2024/01/24 03:26:44;;;;;;;;;;;;;;;10.04;100.00;100721.28;4896109;29;19979;-76
2024/01/24 03:29:10;;;;;;;;;;;;;;;10.08;100.00;100730.63;4897016;29;19923;-76
2024/01/24 03:31:35;;;;;;;;;;;;;;;10.10;100.00;100744.69;4897412;29;20359;-76
2024/01/24 03:34:00;;;;;;;;;;;;;;;10.15;100.00;100739.56;4893168;29;19923;-76
2024/01/24 03:36:25;;;;;;;;;;;;;;;10.21;100.00;100754.09;4891316;29;19928;-77
2024/01/24 03:38:51;;;;;;;;;;;;;;;10.18;100.00;100732.13;4893389;29;19923;-77
2024/01/24 03:41:16;;;;;;;;;;;;;;;10.15;100.00;100718.06;4895543;29;19934;-78
2024/01/24 03:43:41;;;;;;;;;;;;;;;10.13;100.00;100743.50;4896316;29;19935;-77
2024/01/24 03:46:06;;;;;;;;;;;;;;;10.07;100.00;100747.78;4896682;29;19927;-77
2024/01/24 03:48:32;;;;;;;;;;;;;;;10.04;100.00;100753.56;4896422;29;19928;-77
2024/01/24 03:50:57;;;;;;;;;;;;;;;10.11;100.00;100785.91;4896159;29;19930;-77
2024/01/24 03:53:22;;;;;;;;;;;;;;;10.17;100.00;100782.41;4896368;29;19931;-77
2024/01/24 03:55:47;;;;;;;;;;;;;;;10.27;100.00;100771.28;4896035;29;19931;-77
2024/01/24 03:58:13;;;;;;;;;;;;;;;10.26;100.00;100788.47;4896129;29;20022;-77
2024/01/24 04:00:38;;;;;;;;;;;;;;;10.33;100.00;100751.69;4897069;29;19951;-77
2024/01/24 04:03:03;;;;;;;;;;;;;;;10.31;100.00;100762.66;4896656;29;20034;-77
2024/01/24 04:05:28;;;;;;;;;;;;;;;10.33;100.00;100754.38;4895201;29;19965;-76
2024/01/24 04:07:54;;;;;;;;;;;;;;;10.38;100.00;100760.03;4896726;29;20348;-77
2024/01/24 04:10:19;;;;;;;;;;;;;;;10.43;100.00;100768.31;4896206;29;19946;-77
2024/01/24 04:12:50;;;;;;;;;;;;;;;10.43;100.00;100768.31;4895914;29;19923;-77
2024/01/24 04:15:15;;;;;;;;;;;;;;;10.42;100.00;100755.06;4896265;29;20269;-77
2024/01/24 04:17:40;;;;;;;;;;;;;;;10.34;100.00;100750.66;4896434;29;20372;-78
2024/01/24 04:20:05;;;;;;;;;;;;;;;10.35;100.00;100735.31;4896349;29;20392;-77
2024/01/24 04:22:31;;;;;;;;;;;;;;;10.33;100.00;100746.31;4895646;29;20398;-77
2024/01/24 04:24:56;;;;;;;;;;;;;;;10.31;100.00;100764.50;4896080;29;20439;-77
2024/01/24 04:27:22;;;;;;;;;;;;;;;10.29;100.00;100745.88;4896033;29;19924;-77
2024/01/24 04:29:47;;;;;;;;;;;;;;;10.28;100.00;100743.38;4895285;29;19985;-77
2024/01/24 04:32:12;;;;;;;;;;;;;;;10.34;100.00;100774.88;4897259;29;20384;-77
2024/01/24 04:34:38;;;;;;;;;;;;;;;10.29;100.00;100798.84;4895708;29;20375;-77
2024/01/24 04:37:03;;;;;;;;;;;;;;;10.26;100.00;100793.84;4895227;29;20292;-77
2024/01/24 04:39:28;;;;;;;;;;;;;;;10.25;100.00;100776.03;4897299;29;20284;-77
2024/01/24 04:41:54;;;;;;;;;;;;;;;10.22;100.00;100798.78;4887866;29;20328;-77
2024/01/24 04:44:19;;;;;;;;;;;;;;;10.13;100.00;100781.97;4895318;29;19973;-77
2024/01/24 04:46:44;;;;;;;;;;;;;;;10.11;100.00;100789.41;4896898;29;19958;-77
2024/01/24 04:49:15;;;;;;;;;;;;;;;10.11;100.00;100765.19;4895690;29;20440;-77
2024/01/24 04:51:41;;;;;;;;;;;;;;;10.13;100.00;100778.47;4895148;29;19945;-76
2024/01/24 04:54:06;;;;;;;;;;;;;;;10.19;100.00;100776.84;4896353;29;20308;-76
2024/01/24 04:56:31;;;;;;;;;;;;;;;10.19;100.00;100809.94;4895665;29;20356;-77
2024/01/24 04:58:56;;;;;;;;;;;;;;;10.20;100.00;100816.16;4894846;29;19938;-76
2024/01/24 05:01:22;;;;;;;;;;;;;;;10.18;100.00;100780.56;4896733;29;20363;-76
2024/01/24 05:03:47;;;;;;;;;;;;;;;10.25;100.00;100846.84;4896053;29;19924;-76
2024/01/24 05:06:12;;;;;;;;;;;;;;;10.16;100.00;100853.38;4895278;29;19923;-77
2024/01/24 05:08:38;;;;;;;;;;;;;;;10.12;100.00;100855.63;4896439;29;19923;-77
2024/01/24 05:11:04;;;;;;;;;;;;;;;10.15;100.00;100862.47;4896065;29;19979;-78
2024/01/24 05:13:29;;;;;;;;;;;;;;;10.18;100.00;100866.66;4877978;29;19975;-77
2024/01/24 05:15:54;;;;;;;;;;;;;;;10.11;100.00;100875.47;4895718;29;20313;-78
2024/01/24 05:18:19;;;;;;;;;;;;;;;10.06;100.00;100867.16;4900064;29;20085;-79
2024/01/24 05:20:45;;;;;;;;;;;;;;;10.08;100.00;100875.84;4898381;29;19927;-77
2024/01/24 05:23:12;;;;;;;;;;;;;;;10.01;100.00;100888.44;4898819;29;19931;-77
2024/01/24 05:25:38;;;;;;;;;;;;;;;10.01;100.00;100866.91;4899148;29;20212;-78
2024/01/24 05:28:03;;;;;;;;;;;;;;;10.02;100.00;100863.19;4898151;29;20014;-78
2024/01/24 05:30:28;;;;;;;;;;;;;;;10.01;100.00;100861.53;4899467;29;19928;-79
2024/01/24 05:32:55;;;;;;;;;;;;;;;9.96;100.00;100869.34;4898842;29;19935;-78
2024/01/24 05:35:20;;;;;;;;;;;;;;;9.93;100.00;100870.56;4898328;29;20455;-78
2024/01/24 05:37:46;;;;;;;;;;;;;;;9.94;100.00;100863.31;4899378;29;19967;-77
2024/01/24 05:40:12;;;;;;;;;;;;;;;9.99;100.00;100871.66;4898645;29;19923;-77
2024/01/24 05:42:37;;;;;;;;;;;;;;;9.90;100.00;100887.09;4898453;29;19927;-77
2024/01/24 05:45:03;;;;;;;;;;;;;;;9.92;98.74;100900.31;4898951;29;19935;-77
2024/01/24 05:47:28;;;;;;;;;;;;;;;9.87;97.80;100892.84;4897812;29;19923;-77
2024/01/24 05:49:53;;;;;;;;;;;;;;;9.80;97.56;100906.22;4898593;29;20032;-77
2024/01/24 05:52:18;;;;;;;;;;;;;;;9.74;98.27;100919.59;4898812;29;20010;-77
2024/01/24 05:54:53;;;;;;;;;;;;;;;9.75;97.34;100911.31;4898245;29;19923;-77
2024/01/24 05:57:18;;;;;;;;;;;;;;;9.78;96.72;100926.25;4898263;29;20328;-77
2024/01/24 05:59:43;;;;;;;;;;;;;;;9.88;95.10;100937.53;4898637;29;19919;-77
2024/01/24 06:02:09;;;;;;;;;;;;;;;9.83;95.78;100929.19;4898703;29;19959;-77
2024/01/24 06:04:34;;;;;;;;;;;;;;;9.76;96.86;100945.25;4898828;29;20269;-78
2024/01/24 06:07:00;;;;;;;;;;;;;;;9.73;96.23;100936.75;4898324;29;19930;-78
2024/01/24 06:09:28;;;;;;;;;;;;;;;9.71;95.81;100958.41;4897760;29;19923;-78
2024/01/24 06:11:53;;;;;;;;;;;;;;;9.72;95.44;100946.63;4898258;29;19923;-78
2024/01/24 06:14:19;;;;;;;;;;;;;;;9.77;93.65;100949.59;4898022;29;20324;-78
2024/01/24 06:16:44;;;;;;;;;;;;;;;9.73;94.23;100928.66;4898795;29;20253;-78
2024/01/24 06:19:09;;;;;;;;;;;;;;;9.76;93.56;100979.38;4898118;29;19924;-78
2024/01/24 06:21:34;;;;;;;;;;;;;;;9.67;93.98;100957.97;4897989;29;20023;-78
2024/01/24 06:23:59;;;;;;;;;;;;;;;9.67;94.57;100967.91;4898217;29;20297;-78
2024/01/24 06:26:25;;;;;;;;;;;;;;;9.69;93.82;100971.25;4898477;29;20424;-78
2024/01/24 06:28:50;;;;;;;;;;;;;;;9.71;92.91;100963.78;4897430;29;20683;-78
2024/01/24 06:31:15;;;;;;;;;;;;;;;9.72;91.50;100965.47;4896939;29;19931;-77
2024/01/24 06:33:40;;;;;;;;;;;;;;;9.65;94.00;100983.38;4898331;29;20011;-78
2024/01/24 06:36:09;;;;;;;;;;;;;;;9.68;93.43;101007.19;4897096;29;19924;-78
2024/01/24 06:38:34;;;;;;;;;;;;;;;9.65;92.90;101012.94;4899162;29;19924;-78
2024/01/24 06:40:59;;;;;;;;;;;;;;;9.58;92.89;101007.50;4897948;29;19938;-78
2024/01/24 06:43:24;;;;;;;;;;;;;;;9.61;92.12;101011.66;4896635;29;19931;-77
2024/01/24 06:45:49;;;;;;;;;;;;;;;9.56;91.78;101018.41;4898418;29;19930;-78
2024/01/24 06:48:15;;;;;;;;;;;;;;;9.54;90.54;101017.75;4897691;29;19927;-77
2024/01/24 06:50:40;;;;;;;;;;;;;;;9.48;91.06;101023.03;4896942;29;19923;-76
2024/01/24 06:53:09;;;;;;;;;;;;;;;9.53;90.73;100994.59;4897960;29;19930;-75
2024/01/24 06:55:36;;;;;;;;;;;;;;;9.48;91.35;101028.41;4890406;29;20014;-76
2024/01/24 06:58:02;;;;;;;;;;;;;;;9.38;92.70;101032.22;4896507;29;20357;-76
2024/01/24 07:00:29;;;;;;;;;;;;;;;9.31;93.40;101054.66;4898269;29;20423;-76
2024/01/24 07:02:54;;;;;;;;;;;;;;;9.21;93.70;101055.72;4897506;29;19927;-76
2024/01/24 07:05:20;;;;;;;;;;;;;;;9.30;91.03;101059.16;4896481;29;19923;-75
2024/01/24 07:07:45;;;;;;;;;;;;;;;9.33;90.49;101063.38;4880863;29;19927;-76
2024/01/24 07:10:12;;;;;;;;;;;;;;;9.32;91.24;101067.06;4897833;29;19924;-76
2024/01/24 07:12:44;;;;;;;;;;;;;;;9.15;92.00;101077.13;4895994;29;20030;-76
2024/01/24 07:15:10;;;;;;;;;;;;;;;9.06;91.26;101090.63;4897925;29;19927;-77
2024/01/24 07:17:35;;;;;;;;;;;;;;;9.07;91.70;101088.78;4897139;29;19931;-76
2024/01/24 07:20:00;;;;;;;;;;;;;;;9.00;90.74;101082.47;4896379;29;19923;-77
2024/01/24 07:22:27;;;;;;;;;;;;;;;8.99;90.79;101088.84;4897263;29;19923;-76
2024/01/24 07:24:52;;;;;;;;;;;;;;;8.85;91.28;101085.91;4897589;29;19986;-77
2024/01/24 07:27:18;;;;;;;;;;;;;;;8.80;91.30;101105.25;4895935;29;20029;-77
2024/01/24 07:29:43;;;;;;;;;;;;;;;8.72;91.34;101099.09;4897091;29;20059;-77
2024/01/24 07:32:10;;;;;;;;;;;;;;;8.78;89.92;101103.78;4896531;29;21469;-76
2024/01/24 07:34:38;;;;;;;;;;;;;;;8.69;90.99;101103.00;4905582;29;19954;-76
2024/01/24 07:37:04;;;;;;;;;;;;;;;8.61;91.26;101109.25;4908320;29;19924;-77
2024/01/24 07:39:29;;;;;;;;;;;;;;;8.59;91.61;101088.97;4897382;29;19935;-77
2024/01/24 07:41:55;;;;;;;;;;;;;;;8.60;90.74;101106.72;4896674;29;20480;-76
2024/01/24 07:44:21;;;;;;;;;;;;;;;8.52;91.74;101106.78;4897156;29;20308;-76
2024/01/24 07:46:46;;;;;;;;;;;;;;;8.41;92.33;101118.72;4896697;29;19987;-76
2024/01/24 07:49:11;;;;;;;;;;;;;;;8.39;91.28;101110.84;4896904;29;19923;-76
2024/01/24 07:51:36;;;;;;;;;;;;;;;8.45;91.38;101139.66;4896061;29;19923;-75
2024/01/24 07:54:02;;;;;;;;;;;;;;;8.45;91.24;101136.97;4896385;29;19947;-77
2024/01/24 07:56:27;;;;;;;;;;;;;;;8.42;90.86;101141.88;4896104;29;19924;-77
2024/01/24 07:58:52;;;;;;;;;;;;;;;8.43;90.06;101105.97;4896606;29;19923;-76
2024/01/24 08:01:18;;;;;;;;;;;;;;;8.40;90.44;101127.78;4896539;29;19935;-76
2024/01/24 08:03:43;;;;;;;;;;;;;;;8.34;90.45;101140.88;4895813;29;19959;-76
2024/01/24 08:06:09;;;;;;;;;;;;;;;8.34;90.00;101151.63;4896512;29;19923;-76
2024/01/24 08:08:34;;;;;;;;;;;;;;;8.33;91.05;101155.31;4896621;29;20006;-77
2024/01/24 08:10:59;;;;;;;;;;;;;;;8.23;91.05;101154.69;4895920;29;20038;-77
2024/01/24 08:13:25;;;;;;;;;;;;;;;8.25;90.89;101174.13;4896139;29;20003;-77
2024/01/24 08:15:50;;;;;;;;;;;;;;;8.32;90.60;101158.16;4896458;29;19986;-77
2024/01/24 08:18:15;;;;;;;;;;;;;;;8.34;90.48;101173.06;4896661;29;19927;-77
2024/01/24 08:20:40;;;;;;;;;;;;;;;8.40;89.70;101150.06;4895766;29;19927;-77
2024/01/24 08:23:06;;;;;;;;;;;;;;;8.46;89.00;101189.63;4896272;29;20500;-77
2024/01/24 08:25:31;;;;;;;;;;;;;;;8.48;88.27;101170.69;4896118;29;19930;-77
2024/01/24 08:27:57;;;;;;;;;;;;;;;8.44;88.20;101169.34;4895940;29;19924;-76
2024/01/24 08:30:22;;;;;;;;;;;;;;;8.43;88.76;101171.19;4889044;29;19932;-77
2024/01/24 08:32:47;;;;;;;;;;;;;;;8.41;87.85;101164.34;4896256;29;20396;-77
2024/01/24 08:35:13;;;;;;;;;;;;;;;8.41;87.64;101191.16;4895297;29;19950;-77
2024/01/24 08:37:38;;;;;;;;;;;;;;;8.40;88.21;101208.28;4896181;29;19990;-76
2024/01/24 08:40:04;;;;;;;;;;;;;;;8.40;88.07;101208.28;4895767;29;19951;-76
2024/01/24 08:42:29;;;;;;;;;;;;;;;8.41;87.20;101185.78;4896041;29;19930;-76
2024/01/24 08:44:54;;;;;;;;;;;;;;;8.35;88.16;101201.56;4895975;29;19928;-76
2024/01/24 08:47:20;;;;;;;;;;;;;;;8.33;88.06;101197.41;4895787;29;19983;-76
2024/01/24 08:49:45;;;;;;;;;;;;;;;8.42;87.20;101216.97;4894843;29;19931;-76
2024/01/24 08:52:10;;;;;;;;;;;;;;;8.52;86.17;101231.03;4898185;29;19923;-77
2024/01/24 08:54:35;;;;;;;;;;;;;;;8.50;85.90;101225.00;4899605;29;19932;-77
2024/01/24 08:57:00;;;;;;;;;;;;;;;8.53;85.58;101239.94;4898865;29;19928;-77
2024/01/24 08:59:26;;;;;;;;;;;;;;;8.59;85.53;101244.59;4900124;29;19942;-77
2024/01/24 09:01:55;;;;;;;;;;;;;;;8.56;85.30;101223.50;4900215;29;19923;-77
2024/01/24 09:04:20;;;;;;;;;;;;;;;8.63;84.11;101260.22;4898201;29;20284;-76
2024/01/24 09:06:45;;;;;;;;;;;;;;;8.57;84.14;101258.22;4900012;29;19930;-76
2024/01/24 09:09:13;;;;;;;;;;;;;;;8.64;84.01;101243.09;4899707;29;19923;-76
2024/01/24 09:11:39;;;;;;;;;;;;;;;8.65;83.68;101244.75;4899008;29;19927;-76
2024/01/24 09:14:05;;;;;;;;;;;;;;;8.69;84.39;101258.66;4899370;29;19930;-76
2024/01/24 09:16:30;;;;;;;;;;;;;;;8.76;83.86;101258.81;4898157;29;20043;-77
2024/01/24 09:18:56;;;;;;;;;;;;;;;8.85;83.47;101271.16;4898128;29;20010;-76
2024/01/24 09:21:21;;;;;;;;;;;;;;;8.93;82.70;101292.63;4899361;29;19924;-76
2024/01/24 09:23:49;;;;;;;;;;;;;;;8.87;82.57;101317.47;4899487;29;19924;-76
2024/01/24 09:26:14;;;;;;;;;;;;;;;8.73;82.82;101299.41;4898273;29;19930;-76
2024/01/24 09:28:40;;;;;;;;;;;;;;;8.71;82.57;101312.16;4899558;29;19927;-76
2024/01/24 09:31:05;;;;;;;;;;;;;;;8.74;82.77;101290.34;4899342;29;20320;-76
2024/01/24 09:33:30;;;;;;;;;;;;;;;8.77;82.52;101276.59;4898120;29;20752;-76
2024/01/24 09:35:56;;;;;;;;;;;;;;;8.76;82.14;101296.38;4899178;29;19978;-76
2024/01/24 09:38:21;;;;;;;;;;;;;;;8.80;82.92;101298.53;4898409;29;19970;-76
2024/01/24 09:40:46;;;;;;;;;;;;;;;8.84;82.04;101282.09;4898099;29;19966;-76
2024/01/24 09:43:11;;;;;;;;;;;;;;;8.87;81.85;101300.53;4899212;29;19923;-76
2024/01/24 09:45:39;;;;;;;;;;;;;;;8.91;81.35;101337.59;4882340;29;19924;-75
2024/01/24 09:48:08;;;;;;;;;;;;;;;8.89;82.16;101361.09;4898399;29;19931;-76
2024/01/24 09:50:33;;;;;;;;;;;;;;;8.96;82.38;101355.88;4882132;29;20379;-76
2024/01/24 09:52:59;;;;;;;;;;;;;;;8.99;81.81;101355.53;4899550;29;19979;-76
2024/01/24 09:55:24;;;;;;;;;;;;;;;9.05;81.52;101345.91;4897547;29;19930;-76
2024/01/24 09:57:49;;;;;;;;;;;;;;;8.97;81.86;101348.66;4898657;29;19923;-76
2024/01/24 10:00:15;;;;;;;;;;;;;;;9.00;81.55;101343.78;4898942;29;19930;-75
2024/01/24 10:02:46;;;;;;;;;;;;;;;9.02;82.00;101363.22;4898085;29;20017;-75
2024/01/24 10:05:21;;;;;;;;;;;;;;;9.05;80.30;101362.03;4898422;29;19924;-75
2024/01/24 10:07:46;;;;;;;;;;;;;;;9.13;81.79;101374.59;4898546;29;19994;-75
2024/01/24 10:10:12;;;;;;;;;;;;;;;9.12;81.37;101365.72;4898103;29;20360;-75
2024/01/24 10:12:37;;;;;;;;;;;;;;;9.12;81.23;101373.78;4898281;29;20006;-75
2024/01/24 10:15:03;;;;;;;;;;;;;;;9.14;80.30;101377.13;4898191;29;20018;-75
2024/01/24 10:17:28;;;;;;;;;;;;;;;9.23;80.18;101375.25;4898597;29;19923;-76
2024/01/24 10:19:53;;;;;;;;;;;;;;;9.31;80.54;101382.41;4898201;29;19935;-76
2024/01/24 10:22:19;;;;;;;;;;;;;;;9.33;79.72;101356.22;4898210;29;19967;-75
2024/01/24 10:24:44;;;;;;;;;;;;;;;9.37;79.36;101381.69;4897477;29;19928;-75
2024/01/24 10:27:09;;;;;;;;;;;;;;;9.40;78.73;101376.84;4897898;29;19946;-75
2024/01/24 10:29:37;;;;;;;;;;;;;;;9.37;78.96;101379.88;4897949;29;20018;-75
2024/01/24 10:32:03;;;;;;;;;;;;;;;9.42;78.46;101373.94;4897866;29;20558;-75
2024/01/24 10:34:28;;;;;;;;;;;;;;;9.50;78.73;101390.03;4897799;29;19931;-75
2024/01/24 10:36:53;;;;;;;;;;;;;;;9.49;77.67;101390.19;4897838;29;20368;-75
2024/01/24 10:39:20;;;;;;;;;;;;;;;9.51;77.86;101405.16;4897879;29;19919;-75
2024/01/24 10:41:45;;;;;;;;;;;;;;;9.51;77.96;101405.16;4897820;29;19979;-75
2024/01/24 10:44:10;;;;;;;;;;;;;;;9.51;78.33;101415.91;4898076;29;19927;-75
2024/01/24 10:46:39;;;;;;;;;;;;;;;9.53;78.52;101407.66;4881280;29;19971;-75
2024/01/24 10:49:05;;;;;;;;;;;;;;;9.52;78.14;101412.22;4897521;29;19951;-74
2024/01/24 10:51:30;;;;;;;;;;;;;;;9.44;79.09;101420.31;4897981;29;19928;-74
2024/01/24 10:53:55;;;;;;;;;;;;;;;9.43;78.00;101407.88;4896987;29;19930;-75
2024/01/24 10:56:21;;;;;;;;;;;;;;;9.43;78.85;101424.00;4897384;29;20360;-75
2024/01/24 10:58:48;;;;;;;;;;;;;;;9.47;77.88;101436.09;4898651;29;19919;-75
2024/01/24 11:01:13;;;;;;;;;;;;;;;9.35;78.66;101438.31;4897611;29;19979;-75
2024/01/24 11:03:38;;;;;;;;;;;;;;;9.25;79.22;101432.31;4896699;29;19931;-75
2024/01/24 11:06:05;;;;;;;;;;;;;;;9.27;79.22;101429.44;4881271;29;19924;-75
2024/01/24 11:08:51;;;;;;;;;;;;;;;9.37;78.27;101441.66;4897918;29;19923;-75
2024/01/24 11:11:17;;;;;;;;;;;;;;;9.45;79.39;101448.84;4896385;29;20307;-75
2024/01/24 11:13:42;;;;;;;;;;;;;;;9.32;79.16;101467.38;4898541;29;19927;-75
2024/01/24 11:16:25;;;;;;;;;;;;;;;9.44;79.08;101474.06;4897316;29;19934;-76
2024/01/24 11:18:51;;;;;;;;;;;;;;;9.42;77.50;101481.44;4897202;29;19931;-76
2024/01/24 11:21:20;;;;;;;;;;;;;;;9.46;78.01;101493.53;4903983;29;20385;-75
2024/01/24 11:23:46;;;;;;;;;;;;;;;9.50;76.92;101461.75;4901384;29;19923;-75
2024/01/24 11:26:12;;;;;;;;;;;;;;;9.39;78.40;101481.78;4883665;29;19927;-74
2024/01/24 11:28:37;;;;;;;;;;;;;;;9.30;76.89;101482.84;4899841;29;19924;-75
2024/01/24 11:31:03;;;;;;;;;;;;;;;9.30;77.51;101493.59;4897085;29;20003;-75
2024/01/24 11:33:28;;;;;;;;;;;;;;;9.41;77.34;101490.50;4896874;29;20549;-74
2024/01/24 11:35:54;;;;;;;;;;;;;;;9.39;77.78;101495.22;4897976;29;20296;-74
2024/01/24 11:38:20;;;;;;;;;;;;;;;9.29;76.84;101475.78;4881291;29;19970;-74
2024/01/24 11:40:45;;;;;;;;;;;;;;;9.27;77.21;101499.31;4898182;29;20447;-74
2024/01/24 11:43:26;;;;;;;;;;;;;;;9.38;77.39;101506.97;4898499;29;20341;-75
2024/01/24 11:45:55;;;;;;;;;;;;;;;9.42;76.97;101516.38;4896622;29;20000;-74
2024/01/24 11:48:20;;;;;;;;;;;;;;;9.41;76.61;101490.50;4896716;29;20026;-75
2024/01/24 11:50:48;;;;;;;;;;;;;;;9.38;76.35;101513.22;4897516;29;20071;-74
2024/01/24 11:53:13;;;;;;;;;;;;;;;9.35;77.10;101534.22;4896334;29;19931;-74
2024/01/24 11:55:38;;;;;;;;;;;;;;;9.33;76.50;101541.63;4896914;29;19927;-74
2024/01/24 11:58:06;;;;;;;;;;;;;;;9.38;76.54;101539.22;4897058;29;19958;-75
2024/01/24 12:00:31;;;;;;;;;;;;;;;9.32;76.76;101539.94;4896376;29;19923;-75
2024/01/24 12:02:57;;;;;;;;;;;;;;;9.33;76.17;101563.09;4896252;29;19930;-75
2024/01/24 12:05:22;;;;;;;;;;;;;;;9.49;75.67;101552.31;4896900;29;19930;-75
2024/01/24 12:07:47;;;;;;;;;;;;;;;9.43;75.39;101547.63;4896082;29;19919;-75
2024/01/24 12:10:12;;;;;;;;;;;;;;;9.40;76.70;101572.16;4896329;29;19939;-74
2024/01/24 12:12:38;;;;;;;;;;;;;;;9.28;77.06;101554.72;4896897;29;19946;-74
2024/01/24 12:15:04;;;;;;;;;;;;;;;9.21;77.29;101570.69;4879333;29;20019;-74
2024/01/24 12:17:29;;;;;;;;;;;;;;;9.18;77.63;101585.28;4878903;29;20393;-74
2024/01/24 12:19:56;;;;;;;;;;;;;;;9.14;76.66;101565.16;4896666;29;19920;-74
2024/01/24 12:22:22;;;;;;;;;;;;;;;9.19;77.56;101584.25;4878749;29;19927;-73
2024/01/24 12:24:47;;;;;;;;;;;;;;;9.20;77.06;101583.25;4879417;29;20273;-74
2024/01/24 12:27:12;;;;;;;;;;;;;;;9.16;76.78;101595.38;4895878;29;19919;-74
2024/01/24 12:29:37;;;;;;;;;;;;;;;9.16;76.56;101611.50;4895654;29;19931;-74